Time;durP1;ratioP1;P1;durP2;ratioP2;P2;SDS_P1;SDS_P2;PMS_P1;PMS_P2;Temp;Humidity;BMP_temperature;BMP_pressure;BME280_temperature;BME280_humidity;BME280_pressure;Samples;Min_cycle;Max_cycle;Signal;HPM_P1;HPM_P2
2023/08/12 00:00:16;;;;;;;10.23;4.47;;;19.50;99.90;;;;;;5026733;28;21008;-83
2023/08/12 00:02:43;;;;;;;6.57;4.57;;;19.40;99.90;;;;;;5044490;28;20459;-83
2023/08/12 00:05:10;;;;;;;5.90;4.60;;;19.40;99.90;;;;;;5031960;28;20805;-81
2023/08/12 00:07:36;;;;;;;10.27;4.80;;;19.30;99.90;;;;;;5045534;28;20450;-83
2023/08/12 00:10:04;;;;;;;5.80;3.53;;;19.30;99.90;;;;;;5029087;28;20505;-83
2023/08/12 00:12:33;;;;;;;6.90;4.50;;;19.40;99.90;;;;;;5030105;28;20438;-82
2023/08/12 00:14:59;;;;;;;7.50;5.00;;;19.50;99.90;;;;;;5043296;28;20447;-82
2023/08/12 00:17:25;;;;;;;9.83;6.37;;;19.60;99.90;;;;;;5034933;28;21412;-82
2023/08/12 00:19:50;;;;;;;6.37;3.57;;;19.60;99.90;;;;;;5043460;28;20192;-83
2023/08/12 00:22:16;;;;;;;9.13;4.97;;;19.50;99.90;;;;;;5034925;28;22603;-84
2023/08/12 00:24:42;;;;;;;4.10;3.43;;;19.50;99.90;;;;;;5039554;28;20208;-83
2023/08/12 00:27:08;;;;;;;13.30;4.37;;;19.50;99.90;;;;;;5034829;28;20192;-82
2023/08/12 00:29:34;;;;;;;10.30;4.80;;;19.60;99.90;;;;;;5023757;28;20434;-84
2023/08/12 00:32:00;;;;;;;10.83;4.83;;;19.50;99.90;;;;;;5025031;28;20457;-84
2023/08/12 00:34:26;;;;;;;8.37;5.83;;;19.50;99.90;;;;;;5043275;28;20458;-83
2023/08/12 00:36:51;;;;;;;10.13;7.80;;;19.40;99.90;;;;;;5041010;28;20870;-83
2023/08/12 00:39:17;;;;;;;14.73;8.10;;;19.20;99.90;;;;;;5027358;28;20192;-82
2023/08/12 00:41:42;;;;;;;10.17;6.10;;;19.20;99.90;;;;;;5026549;28;20338;-82
2023/08/12 00:44:08;;;;;;;8.83;7.60;;;19.10;99.90;;;;;;5049461;28;20212;-84
2023/08/12 00:46:34;;;;;;;13.20;8.83;;;19.10;99.90;;;;;;5027743;28;20195;-84
2023/08/12 00:49:00;;;;;;;13.27;8.13;;;19.10;99.90;;;;;;5059244;28;20187;-80
2023/08/12 00:51:26;;;;;;;8.67;7.77;;;19.00;99.90;;;;;;5038842;28;20993;-82
2023/08/12 00:53:53;;;;;;;11.20;9.33;;;19.00;99.90;;;;;;5032706;28;20188;-84
2023/08/12 00:56:19;;;;;;;7.97;7.13;;;18.90;99.90;;;;;;5038646;28;20439;-85
2023/08/12 00:58:46;;;;;;;11.33;7.47;;;18.90;99.90;;;;;;5041397;28;20497;-83
2023/08/12 01:01:13;;;;;;;13.10;10.20;;;18.90;99.90;;;;;;5032420;28;20473;-84
2023/08/12 01:03:38;;;;;;;12.73;9.30;;;18.90;99.90;;;;;;5029047;28;21209;-85
2023/08/12 01:06:04;;;;;;;10.43;8.43;;;18.90;99.90;;;;;;5038430;28;20447;-83
2023/08/12 01:08:31;;;;;;;12.33;8.80;;;18.90;99.90;;;;;;5030920;28;20219;-85
2023/08/12 01:11:12;;;;;;;10.93;7.37;;;19.00;99.90;;;;;;5028315;28;20192;-84
2023/08/12 01:14:00;;;;;;;10.67;5.53;;;19.00;99.90;;;;;;5029924;28;20968;-83
2023/08/12 01:16:30;;;;;;;8.23;6.50;;;18.90;99.90;;;;;;5030972;28;20450;-81
2023/08/12 01:18:57;;;;;;;7.87;6.90;;;18.90;99.90;;;;;;5034239;28;20449;-83
2023/08/12 01:21:26;;;;;;;11.37;7.60;;;18.90;99.90;;;;;;5030069;28;21032;-85
2023/08/12 01:23:52;;;;;;;16.43;7.50;;;19.00;99.90;;;;;;5044422;28;20446;-85
2023/08/12 01:26:18;;;;;;;11.53;9.50;;;19.00;99.90;;;;;;5029514;28;20472;-83
2023/08/12 01:28:43;;;;;;;14.13;9.20;;;19.00;99.90;;;;;;5043105;28;20240;-83
2023/08/12 01:31:15;;;;;;;12.10;10.63;;;19.00;99.90;;;;;;5029773;28;20216;-83
2023/08/12 01:33:50;;;;;;;9.57;8.03;;;19.00;99.90;;;;;;5024117;28;20671;-83
2023/08/12 01:36:18;;;;;;;8.40;6.97;;;19.00;99.90;;;;;;5029071;28;20888;-83
2023/08/12 01:38:46;;;;;;;8.60;6.77;;;19.00;99.90;;;;;;5028577;28;20438;-82
2023/08/12 01:41:13;;;;;;;11.40;6.90;;;19.00;99.90;;;;;;5030425;28;20470;-84
2023/08/12 01:43:41;;;;;;;8.70;6.70;;;19.00;99.90;;;;;;5033779;28;20473;-83
2023/08/12 01:46:06;;;;;;;10.47;7.10;;;19.00;99.90;;;;;;5031525;28;20978;-84
2023/08/12 01:48:32;;;;;;;8.17;6.90;;;19.00;99.90;;;;;;5046266;28;20432;-82
2023/08/12 01:50:58;;;;;;;11.00;7.93;;;19.00;99.90;;;;;;5052788;28;20185;-81
2023/08/12 01:53:23;;;;;;;11.97;9.77;;;19.00;99.90;;;;;;5073873;28;20185;-82
2023/08/12 01:55:50;;;;;;;16.83;10.40;;;18.90;99.90;;;;;;5068600;28;20236;-83
2023/08/12 01:58:16;;;;;;;14.60;11.77;;;18.80;99.90;;;;;;5050916;28;20197;-82
2023/08/12 02:00:41;;;;;;;16.60;10.63;;;18.70;99.90;;;;;;5036472;28;20444;-84
2023/08/12 02:03:07;;;;;;;12.13;9.47;;;18.70;99.90;;;;;;5048039;28;20213;-83
2023/08/12 02:05:33;;;;;;;18.03;10.90;;;18.70;99.90;;;;;;5031221;28;20204;-81
2023/08/12 02:07:58;;;;;;;10.27;7.57;;;18.80;99.90;;;;;;5029779;28;20537;-83
2023/08/12 02:10:24;;;;;;;12.33;8.30;;;19.00;99.90;;;;;;5042749;28;20442;-82
2023/08/12 02:12:50;;;;;;;10.47;7.57;;;;;;;;;;5041172;28;20625;-82
2023/08/12 02:15:15;;;;;;;11.80;8.10;;;19.10;99.90;;;;;;5039422;28;20209;-82
2023/08/12 02:17:41;;;;;;;12.00;7.80;;;19.10;99.90;;;;;;5040447;28;20941;-84
2023/08/12 02:20:07;;;;;;;20.23;9.77;;;19.10;99.90;;;;;;5052536;28;20272;-85
2023/08/12 02:22:32;;;;;;;9.63;8.30;;;19.10;99.90;;;;;;5046181;28;20242;-83
2023/08/12 02:24:58;;;;;;;15.07;9.30;;;19.20;99.90;;;;;;5033282;28;20436;-84
2023/08/12 02:27:23;;;;;;;12.43;8.03;;;19.20;99.90;;;;;;5045590;28;20210;-82
2023/08/12 02:29:49;;;;;;;11.00;8.53;;;19.30;99.90;;;;;;5038714;28;20185;-84
2023/08/12 02:32:14;;;;;;;13.23;8.67;;;19.20;99.90;;;;;;5045369;28;20269;-81
2023/08/12 02:34:40;;;;;;;12.90;8.30;;;19.20;99.90;;;;;;5038772;28;20213;-82
2023/08/12 02:37:05;;;;;;;11.83;9.03;;;19.10;99.90;;;;;;5068322;28;20212;-83
2023/08/12 02:39:31;;;;;;;10.50;8.87;;;19.20;99.90;;;;;;5055738;28;20204;-84
2023/08/12 02:41:56;;;;;;;11.70;8.93;;;19.20;99.90;;;;;;5032905;28;20637;-84
2023/08/12 02:44:22;;;;;;;10.10;8.57;;;19.40;99.90;;;;;;5043744;28;21036;-83
2023/08/12 02:46:48;;;;;;;12.80;8.07;;;19.20;99.90;;;;;;5030189;28;20183;-83
2023/08/12 02:49:13;;;;;;;10.90;9.30;;;19.10;99.90;;;;;;5044386;28;20312;-82
2023/08/12 02:51:39;;;;;;;10.70;8.90;;;19.00;99.90;;;;;;5024617;28;20564;-85
2023/08/12 02:54:04;;;;;;;16.60;11.03;;;19.00;99.90;;;;;;5043871;28;20201;-85
2023/08/12 02:56:30;;;;;;;11.60;9.40;;;18.90;99.90;;;;;;5044569;28;20179;-83
2023/08/12 02:58:56;;;;;;;13.47;8.70;;;19.00;99.90;;;;;;5051863;28;20208;-85
2023/08/12 03:01:21;;;;;;;15.50;8.73;;;19.00;99.90;;;;;;5045026;28;20687;-85
2023/08/12 03:03:49;;;;;;;11.17;8.77;;;19.00;99.90;;;;;;5044015;28;20189;-83
2023/08/12 03:06:14;;;;;;;11.27;8.47;;;19.00;99.90;;;;;;5046934;28;20189;-83
2023/08/12 03:08:40;;;;;;;13.83;8.83;;;19.00;99.90;;;;;;5039307;28;20442;-81
2023/08/12 03:11:05;;;;;;;10.20;8.50;;;19.00;99.90;;;;;;5049362;28;20197;-83
2023/08/12 03:13:31;;;;;;;15.23;10.53;;;19.00;99.90;;;;;;5046067;28;20561;-85
2023/08/12 03:15:56;;;;;;;13.20;9.77;;;19.10;99.90;;;;;;5045146;28;20215;-83
2023/08/12 03:18:22;;;;;;;13.43;8.90;;;19.20;99.90;;;;;;5025523;28;20728;-82
2023/08/12 03:20:48;;;;;;;11.43;8.60;;;19.30;99.90;;;;;;5053102;28;20892;-84
2023/08/12 03:23:15;;;;;;;12.30;8.70;;;19.40;99.90;;;;;;5030500;28;22000;-83
2023/08/12 03:25:40;;;;;;;11.60;9.83;;;19.40;99.90;;;;;;5040588;28;20710;-85
2023/08/12 03:28:06;;;;;;;13.00;9.30;;;19.40;99.90;;;;;;5025445;28;20439;-82
2023/08/12 03:30:31;;;;;;;17.33;10.37;;;19.40;99.90;;;;;;5031136;28;20188;-83
2023/08/12 03:32:57;;;;;;;14.53;9.47;;;19.30;99.90;;;;;;5031613;28;20284;-84
2023/08/12 03:35:23;;;;;;;10.27;9.10;;;19.20;99.90;;;;;;5035233;28;20236;-82
2023/08/12 03:37:48;;;;;;;13.87;9.83;;;19.10;99.90;;;;;;5025187;28;20187;-82
2023/08/12 03:40:14;;;;;;;14.27;10.63;;;18.80;99.90;;;;;;5040843;28;20606;-83
2023/08/12 03:42:39;;;;;;;14.50;11.23;;;18.70;99.90;;;;;;5042533;28;20228;-84
2023/08/12 03:45:05;;;;;;;15.00;11.70;;;18.60;99.90;;;;;;5042771;28;20196;-83
2023/08/12 03:47:31;;;;;;;13.73;10.30;;;18.60;99.90;;;;;;5044424;28;20189;-83
2023/08/12 03:49:56;;;;;;;19.80;10.70;;;18.70;99.90;;;;;;5026590;28;20982;-83
2023/08/12 03:52:22;;;;;;;11.77;10.43;;;18.90;99.90;;;;;;5024103;28;20185;-82
2023/08/12 03:54:47;;;;;;;15.73;9.60;;;19.00;99.90;;;;;;5026959;28;20753;-83
2023/08/12 03:57:13;;;;;;;11.77;10.40;;;19.10;99.90;;;;;;5042324;28;20289;-84
2023/08/12 03:59:38;;;;;;;12.20;9.50;;;19.20;99.90;;;;;;5021742;28;20664;-81
2023/08/12 04:02:04;;;;;;;11.80;9.93;;;19.30;99.90;;;;;;5037055;28;20243;-82
2023/08/12 04:04:30;;;;;;;12.30;10.00;;;19.40;99.90;;;;;;5021232;28;20263;-82
2023/08/12 04:06:55;;;;;;;14.97;10.07;;;19.20;99.90;;;;;;5025191;28;20177;-85
2023/08/12 04:09:21;;;;;;;14.37;10.13;;;19.10;99.90;;;;;;5029283;28;20210;-81
2023/08/12 04:11:47;;;;;;;13.97;9.70;;;19.20;99.90;;;;;;5042725;28;20199;-83
2023/08/12 04:14:15;;;;;;;14.87;9.30;;;19.30;99.90;;;;;;5025960;28;20413;-83
2023/08/12 04:16:41;;;;;;;9.10;8.20;;;;;;;;;;5043526;28;20436;-80
2023/08/12 04:19:06;;;;;;;9.80;8.80;;;19.50;99.90;;;;;;5043224;28;20943;-81
2023/08/12 04:21:32;;;;;;;13.40;8.33;;;19.60;99.90;;;;;;5041730;28;20481;-84
2023/08/12 04:23:57;;;;;;;10.30;7.93;;;19.60;99.90;;;;;;5031043;28;20210;-84
2023/08/12 04:26:23;;;;;;;9.63;7.70;;;19.60;99.90;;;;;;5049155;28;21339;-84
2023/08/12 04:28:48;;;;;;;12.70;7.77;;;19.70;99.90;;;;;;5045926;28;20263;-83
2023/08/12 04:31:14;;;;;;;12.37;8.53;;;19.80;99.90;;;;;;5035823;28;20188;-84
2023/08/12 04:33:39;;;;;;;9.50;7.93;;;19.80;99.90;;;;;;5047399;28;20263;-80
2023/08/12 04:36:05;;;;;;;7.80;6.60;;;19.90;99.90;;;;;;5027688;28;20212;-83
2023/08/12 04:38:31;;;;;;;11.60;7.50;;;20.00;99.90;;;;;;5024739;28;20921;-80
2023/08/12 04:40:56;;;;;;;9.37;7.60;;;20.10;99.90;;;;;;5022727;28;21097;-83
2023/08/12 04:43:22;;;;;;;10.73;7.90;;;20.20;99.90;;;;;;5030339;28;20189;-83
2023/08/12 04:45:48;;;;;;;9.77;8.20;;;20.30;99.90;;;;;;5025667;28;20193;-84
2023/08/12 04:48:14;;;;;;;10.97;8.07;;;20.40;99.90;;;;;;5030415;28;20198;-83
2023/08/12 04:50:42;;;;;;;15.47;8.17;;;20.40;99.90;;;;;;5042603;28;20187;-82
2023/08/12 04:53:07;;;;;;;9.60;8.10;;;20.40;99.90;;;;;;5024817;28;20431;-83
2023/08/12 04:55:34;;;;;;;11.83;8.27;;;20.40;99.90;;;;;;5044475;28;20513;-81
2023/08/12 04:58:01;;;;;;;12.33;8.10;;;20.50;99.90;;;;;;5053361;28;20177;-84
2023/08/12 05:00:26;;;;;;;10.60;8.77;;;20.40;99.90;;;;;;5030087;28;20439;-84
2023/08/12 05:02:53;;;;;;;10.27;7.60;;;20.40;99.90;;;;;;5032409;28;20509;-82
2023/08/12 05:05:18;;;;;;;11.93;7.83;;;20.50;99.90;;;;;;5049688;28;20929;-84
2023/08/12 05:07:48;;;;;;;9.73;8.17;;;20.60;99.90;;;;;;5041714;28;20184;-84
2023/08/12 05:10:16;;;;;;;9.50;8.10;;;20.50;99.90;;;;;;5043361;28;20181;-85
2023/08/12 05:12:43;;;;;;;11.00;7.73;;;20.50;99.90;;;;;;5041137;28;20443;-84
2023/08/12 05:15:09;;;;;;;9.23;8.20;;;20.60;99.90;;;;;;5060392;28;20469;-84
2023/08/12 05:17:35;;;;;;;12.50;7.90;;;20.80;99.90;;;;;;5059712;28;20475;-85
2023/08/12 05:20:01;;;;;;;13.70;7.40;;;20.90;99.90;;;;;;5045342;28;20487;-87
2023/08/12 05:22:26;;;;;;;9.43;8.00;;;21.10;99.90;;;;;;5046382;28;20212;-87
2023/08/12 05:24:51;;;;;;;8.60;7.70;;;21.40;99.90;;;;;;5035299;28;20582;-86
2023/08/12 05:27:17;;;;;;;8.40;7.57;;;21.60;99.90;;;;;;5030853;28;20268;-88
2023/08/12 05:29:43;;;;;;;9.00;7.50;;;21.70;99.90;;;;;;5033838;28;20180;-84
2023/08/12 05:32:08;;;;;;;8.20;6.83;;;21.60;99.90;;;;;;5048531;28;20180;-84
2023/08/12 05:34:34;;;;;;;10.30;7.97;;;21.70;99.90;;;;;;5053544;28;20219;-82
2023/08/12 05:36:59;;;;;;;10.30;7.47;;;21.90;99.90;;;;;;5033700;28;20173;-84
2023/08/12 05:39:25;;;;;;;10.47;6.80;;;22.00;99.90;;;;;;5039262;28;20580;-85
2023/08/12 05:41:52;;;;;;;13.40;7.23;;;22.20;99.90;;;;;;5035541;28;20196;-81
2023/08/12 05:44:17;;;;;;;8.37;7.53;;;22.00;99.90;;;;;;5030743;28;20230;-84
2023/08/12 05:46:43;;;;;;;11.60;8.23;;;21.70;99.90;;;;;;5031211;28;20814;-83
2023/08/12 05:49:09;;;;;;;12.03;9.27;;;21.60;99.90;;;;;;5048295;28;20260;-83
2023/08/12 05:51:35;;;;;;;14.00;9.60;;;21.50;99.90;;;;;;5030655;28;20216;-83
2023/08/12 05:54:00;;;;;;;9.00;8.10;;;21.80;99.90;;;;;;5025606;28;20535;-82
2023/08/12 05:56:26;;;;;;;9.90;8.17;;;22.30;99.90;;;;;;5041971;28;20200;-82
2023/08/12 05:58:51;;;;;;;18.83;8.20;;;22.70;99.90;;;;;;5026490;28;22203;-81
2023/08/12 06:01:17;;;;;;;7.70;6.87;;;23.30;99.90;;;;;;5042500;28;20216;-84
2023/08/12 06:03:43;;;;;;;8.90;7.40;;;23.90;99.90;;;;;;5031691;28;20201;-82
2023/08/12 06:06:08;;;;;;;9.30;7.60;;;24.50;99.90;;;;;;5029668;28;20475;-84
2023/08/12 06:08:34;;;;;;;8.53;7.13;;;25.10;99.90;;;;;;5030060;28;21808;-82
2023/08/12 06:11:00;;;;;;;8.60;7.13;;;;;;;;;;5044839;28;20307;-82
2023/08/12 06:13:25;;;;;;;13.43;7.87;;;25.50;99.90;;;;;;5032403;28;20755;-81
2023/08/12 06:15:51;;;;;;;15.13;8.00;;;25.50;99.90;;;;;;5044190;28;20464;-84
2023/08/12 06:18:17;;;;;;;11.90;8.17;;;25.00;99.90;;;;;;5026606;28;20578;-83
2023/08/12 06:20:43;;;;;;;13.50;9.20;;;24.50;99.90;;;;;;5041551;28;20447;-83
2023/08/12 06:23:08;;;;;;;10.90;9.43;;;24.00;99.90;;;;;;5043390;28;20193;-83
2023/08/12 06:25:36;;;;;;;14.13;10.13;;;23.60;99.90;;;;;;5024483;28;20692;-84
2023/08/12 06:28:03;;;;;;;11.60;9.70;;;23.40;99.90;;;;;;5029038;28;20296;-83
2023/08/12 06:30:29;;;;;;;9.30;8.40;;;23.40;99.90;;;;;;5046982;28;20903;-84
2023/08/12 06:32:55;;;;;;;9.70;8.70;;;24.00;99.90;;;;;;5042015;28;20441;-85
2023/08/12 06:35:21;;;;;;;11.17;8.40;;;24.70;99.90;;;;;;5031958;28;20595;-82
2023/08/12 06:37:46;;;;;;;10.83;8.70;;;24.80;99.90;;;;;;5025830;28;20196;-84
2023/08/12 06:40:12;;;;;;;11.00;9.07;;;24.60;99.90;;;;;;5023388;28;20201;-82
2023/08/12 06:42:38;;;;;;;14.00;9.40;;;24.50;99.90;;;;;;5028728;28;20480;-81
2023/08/12 06:45:04;;;;;;;14.50;9.57;;;24.80;99.90;;;;;;5046276;28;20209;-85
2023/08/12 06:47:30;;;;;;;12.23;9.90;;;25.30;99.90;;;;;;5034287;28;20198;-87
2023/08/12 06:49:55;;;;;;;11.73;9.07;;;25.30;99.90;;;;;;5046130;28;20508;-84
2023/08/12 06:52:21;;;;;;;11.93;9.03;;;25.60;99.90;;;;;;5030938;28;20175;-84
2023/08/12 06:54:46;;;;;;;24.17;13.20;;;25.60;99.90;;;;;;5046212;28;20232;-84
2023/08/12 06:57:12;;;;;;;16.10;11.13;;;26.00;99.90;;;;;;5049512;28;20191;-82
2023/08/12 06:59:38;;;;;;;12.37;9.40;;;26.90;99.90;;;;;;5047948;28;20710;-83
2023/08/12 07:02:04;;;;;;;11.23;8.90;;;28.40;99.90;;;;;;5039204;28;20201;-82
2023/08/12 07:04:30;;;;;;;8.17;7.33;;;30.40;99.90;;;;;;5033355;28;20564;-83
2023/08/12 07:06:55;;;;;;;16.90;9.67;;;31.10;99.90;;;;;;5036802;28;20958;-80
2023/08/12 07:09:21;;;;;;;26.10;11.90;;;31.20;99.90;;;;;;5032257;28;20249;-81
2023/08/12 07:11:46;;;;;;;12.20;7.57;;;30.90;99.90;;;;;;5033308;28;20192;-83
2023/08/12 07:14:12;;;;;;;10.20;7.60;;;31.80;99.90;;;;;;5025353;28;20207;-86
2023/08/12 07:16:37;;;;;;;12.57;8.60;;;33.10;99.90;;;;;;5037390;28;20196;-80
2023/08/12 07:19:03;;;;;;;9.13;6.53;;;34.70;99.90;;;;;;5036669;28;20306;-83
2023/08/12 07:21:28;;;;;;;7.83;6.17;;;35.70;99.90;;;;;;5037141;28;20205;-84
2023/08/12 07:23:54;;;;;;;7.10;6.07;;;35.80;95.20;;;;;;5032185;28;20190;-82
2023/08/12 07:26:19;;;;;;;6.73;6.07;;;35.80;95.40;;;;;;5043872;28;20234;-85
2023/08/12 07:28:45;;;;;;;8.20;6.37;;;35.50;95.50;;;;;;5021188;28;20204;-83
2023/08/12 07:31:10;;;;;;;7.00;6.30;;;34.60;94.30;;;;;;5024369;28;20197;-84
2023/08/12 07:33:36;;;;;;;7.97;6.20;;;34.70;95.80;;;;;;5043987;28;20191;-81
2023/08/12 07:36:02;;;;;;;8.30;6.27;;;35.30;95.30;;;;;;5024240;28;20196;-80
2023/08/12 07:38:28;;;;;;;6.80;6.10;;;36.10;93.50;;;;;;5027822;28;20205;-82
2023/08/12 07:40:54;;;;;;;8.83;5.73;;;35.70;91.90;;;;;;5043365;28;20573;-83
2023/08/12 07:43:19;;;;;;;6.90;6.20;;;;;;;;;;5037437;28;20251;-83
2023/08/12 07:45:50;;;;;;;7.27;6.57;;;33.50;95.20;;;;;;5026015;28;20974;-83
2023/08/12 07:48:15;;;;;;;7.27;6.57;;;32.10;98.50;;;;;;5021883;28;20440;-81
2023/08/12 07:50:41;;;;;;;8.93;7.20;;;30.90;99.90;;;;;;5038759;28;20456;-80
2023/08/12 07:53:06;;;;;;;7.80;6.60;;;29.80;99.90;;;;;;5034468;28;20177;-79
2023/08/12 07:55:32;;;;;;;10.43;7.10;;;29.20;99.90;;;;;;5051465;28;20661;-83
2023/08/12 07:57:57;;;;;;;8.03;6.27;;;29.10;99.90;;;;;;5044305;28;21279;-84
2023/08/12 08:00:23;;;;;;;10.10;6.87;;;30.20;99.90;;;;;;5029110;28;20177;-81
2023/08/12 08:02:48;;;;;;;10.27;6.73;;;31.20;99.90;;;;;;5030041;28;21532;-85
2023/08/12 08:05:14;;;;;;;8.30;7.37;;;31.30;99.90;;;;;;5021035;28;20200;-84
2023/08/12 08:07:39;;;;;;;8.27;7.57;;;31.70;99.90;;;;;;5024218;28;20919;-84
2023/08/12 08:10:05;;;;;;;7.03;6.33;;;31.70;99.90;;;;;;5030425;28;20280;-82
2023/08/12 08:12:31;;;;;;;9.93;6.57;;;32.20;99.90;;;;;;5034154;28;21226;-87
2023/08/12 08:14:57;;;;;;;7.93;6.43;;;33.70;99.90;;;;;;5021745;28;20459;-82
2023/08/12 08:17:22;;;;;;;12.23;6.13;;;34.30;97.80;;;;;;5025560;28;20576;-84
2023/08/12 08:19:48;;;;;;;8.13;6.90;;;33.90;96.80;;;;;;5016609;28;20628;-83
2023/08/12 08:22:13;;;;;;;9.77;7.17;;;34.60;97.40;;;;;;5036983;28;20777;-85
2023/08/12 08:24:39;;;;;;;7.83;6.67;;;;;;;;;;5041520;28;20677;-86
2023/08/12 08:27:05;;;;;;;7.73;7.00;;;35.90;92.60;;;;;;5045151;28;20304;-84
2023/08/12 08:29:30;;;;;;;7.53;6.67;;;35.40;92.50;;;;;;5021264;28;20434;-83
2023/08/12 08:31:56;;;;;;;7.30;6.53;;;35.00;92.50;;;;;;5021515;28;20317;-86
2023/08/12 08:34:21;;;;;;;8.87;6.50;;;35.10;92.90;;;;;;5024557;28;20297;-83
2023/08/12 08:36:47;;;;;;;7.60;6.07;;;35.40;93.00;;;;;;5022418;28;21195;-85
2023/08/12 08:39:13;;;;;;;7.87;7.13;;;36.50;91.80;;;;;;5027193;28;20942;-85
2023/08/12 08:41:39;;;;;;;10.23;6.97;;;36.30;90.80;;;;;;5054746;28;20329;-84
2023/08/12 08:44:08;;;;;;;8.87;6.20;;;38.60;85.00;;;;;;5049436;28;20187;-83
2023/08/12 08:46:35;;;;;;;8.53;6.60;;;;;;;;;;5044281;28;20441;-85
2023/08/12 08:49:00;;;;;;;8.40;6.10;;;40.50;80.30;;;;;;5037751;28;20434;-85
2023/08/12 08:51:30;;;;;;;7.77;6.17;;;41.00;69.60;;;;;;5025098;28;21046;-84
2023/08/12 08:53:56;;;;;;;9.60;6.67;;;41.50;69.60;;;;;;5044980;28;20306;-86
2023/08/12 08:56:22;;;;;;;7.13;6.43;;;;;;;;;;5029689;28;21030;-86
2023/08/12 08:58:48;;;;;;;7.80;5.97;;;;;;;;;;5045079;28;20433;-84
2023/08/12 09:01:17;;;;;;;9.83;6.87;;;44.10;58.80;;;;;;5042237;28;20486;-84
2023/08/12 09:03:43;;;;;;;8.40;5.90;;;44.10;59.20;;;;;;5032494;28;20451;-86
2023/08/12 09:06:09;;;;;;;6.60;5.80;;;44.50;55.70;;;;;;5034741;28;20473;-84
2023/08/12 09:08:37;;;;;;;7.30;5.73;;;43.70;55.80;;;;;;5055966;28;20437;-82
2023/08/12 09:11:03;;;;;;;8.70;6.10;;;;;;;;;;5037015;28;20422;-83
2023/08/12 09:13:30;;;;;;;8.17;5.90;;;41.90;56.30;;;;;;5033772;28;20640;-85
2023/08/12 09:26:20;;;;;;;7.13;6.33;;;39.70;62.00;;;;;;5037427;28;20490;-82
2023/08/12 09:28:47;;;;;;;7.40;5.70;;;38.30;62.30;;;;;;5028176;28;20519;-82
2023/08/12 09:31:29;;;;;;;7.23;6.47;;;38.90;63.60;;;;;;5040020;28;20451;-83
2023/08/12 09:34:03;;;;;;;10.57;6.37;;;38.90;61.80;;;;;;5036143;28;21079;-83
2023/08/12 09:36:30;;;;;;;6.70;6.00;;;38.40;62.80;;;;;;5018998;28;20436;-83
2023/08/12 09:38:57;;;;;;;11.03;5.73;;;38.60;64.60;;;;;;5017541;28;20440;-83
2023/08/12 09:41:24;;;;;;;8.17;5.80;;;40.30;61.80;;;;;;5021280;28;20499;-83
2023/08/12 09:43:51;;;;;;;6.10;5.60;;;40.30;59.40;;;;;;5015818;28;22328;-83
2023/08/12 09:46:17;;;;;;;7.30;6.60;;;40.30;59.90;;;;;;5038379;28;20615;-82
2023/08/12 09:48:43;;;;;;;8.17;5.97;;;39.80;59.70;;;;;;5034896;28;20578;-83
2023/08/12 09:51:09;;;;;;;9.33;5.37;;;39.00;61.70;;;;;;5037935;28;20210;-82
2023/08/12 09:53:34;;;;;;;9.30;6.53;;;38.80;62.10;;;;;;5036584;28;21077;-83
2023/08/12 09:56:07;;;;;;;7.43;6.67;;;38.90;62.80;;;;;;5035250;28;20221;-84
2023/08/12 09:58:36;;;;;;;10.33;7.70;;;39.30;63.20;;;;;;5036509;28;20253;-85
2023/08/12 10:01:02;;;;;;;7.77;6.47;;;;;;;;;;5032788;28;20446;-84
2023/08/12 10:03:29;;;;;;;6.67;5.97;;;40.20;67.50;;;;;;5037115;28;22120;-85
2023/08/12 10:05:56;;;;;;;6.23;5.63;;;40.20;62.20;;;;;;5031033;28;20460;-85
2023/08/12 10:08:22;;;;;;;7.93;6.37;;;40.50;60.90;;;;;;5038225;28;22728;-84
2023/08/12 10:10:48;;;;;;;7.97;6.30;;;;;;;;;;5040689;28;20450;-83
2023/08/12 10:13:15;;;;;;;8.57;7.30;;;39.20;61.90;;;;;;5023808;28;20439;-83
2023/08/12 10:15:41;;;;;;;6.37;5.77;;;39.30;62.70;;;;;;5031077;28;20447;-83
2023/08/12 10:18:08;;;;;;;14.77;7.83;;;38.50;65.40;;;;;;5033333;28;20453;-83
2023/08/12 10:20:36;;;;;;;6.60;5.60;;;38.80;62.10;;;;;;5023149;28;20446;-84
2023/08/12 10:23:02;;;;;;;6.07;5.47;;;39.60;62.30;;;;;;5035828;28;20452;-84
2023/08/12 10:25:32;;;;;;;8.43;6.50;;;40.80;57.40;;;;;;5021167;28;20467;-84
2023/08/12 10:27:58;;;;;;;7.20;6.30;;;40.80;57.90;;;;;;5038708;28;20928;-83
2023/08/12 10:30:24;;;;;;;7.60;6.20;;;40.50;58.10;;;;;;5036963;28;20442;-84
2023/08/12 10:32:50;;;;;;;7.27;6.50;;;39.40;59.50;;;;;;5017021;28;22834;-84
2023/08/12 10:35:16;;;;;;;6.93;6.23;;;38.00;62.40;;;;;;5022471;28;20459;-84
2023/08/12 10:37:41;;;;;;;7.13;6.43;;;36.50;65.70;;;;;;5035264;28;20495;-84
2023/08/12 10:40:20;;;;;;;7.03;6.33;;;35.70;70.40;;;;;;5023970;28;20194;-84
2023/08/12 10:42:48;;;;;;;8.13;6.40;;;34.50;74.60;;;;;;5034148;28;20205;-84
2023/08/12 10:45:16;;;;;;;7.03;6.03;;;33.90;79.10;;;;;;5031572;28;21608;-83
2023/08/12 10:47:48;;;;;;;7.37;6.60;;;33.70;77.90;;;;;;5035125;28;20446;-82
2023/08/12 10:50:22;;;;;;;7.43;5.60;;;33.50;77.10;;;;;;5024127;28;21319;-83
2023/08/12 10:52:51;;;;;;;6.63;6.03;;;33.00;81.40;;;;;;5018278;28;20447;-83
2023/08/12 11:03:15;;;;;;;7.00;6.30;;;31.70;90.60;;;;;;5042244;28;20605;-82
2023/08/12 11:05:40;;;;;;;6.80;6.20;;;31.70;93.10;;;;;;5026175;28;21301;-83
2023/08/12 11:08:06;;;;;;;8.30;6.83;;;32.00;92.20;;;;;;5027954;28;20181;-84
2023/08/12 11:10:35;;;;;;;7.90;7.10;;;32.40;91.30;;;;;;5040528;28;21295;-81
2023/08/12 11:13:02;;;;;;;6.93;6.13;;;32.20;93.70;;;;;;5017616;28;20254;-82
2023/08/12 11:15:37;;;;;;;5.93;5.43;;;32.40;93.70;;;;;;5036007;28;20564;-83
2023/08/12 11:18:04;;;;;;;7.33;5.97;;;31.90;92.70;;;;;;5050511;28;20525;-83
2023/08/12 11:20:30;;;;;;;7.77;6.43;;;31.40;94.90;;;;;;5028614;28;20457;-82
2023/08/12 11:22:58;;;;;;;8.67;5.83;;;30.90;97.20;;;;;;5032887;28;20465;-81
2023/08/12 11:25:24;;;;;;;7.60;6.47;;;30.50;99.90;;;;;;5046914;28;20459;-82
2023/08/12 11:27:50;;;;;;;6.73;6.03;;;30.50;99.90;;;;;;5030502;28;20448;-81
2023/08/12 11:30:18;;;;;;;6.70;5.40;;;30.00;99.90;;;;;;5033627;28;20504;-81
2023/08/12 11:32:46;;;;;;;10.40;5.20;;;29.80;99.90;;;;;;5040131;28;20436;-81
2023/08/12 11:35:13;;;;;;;7.50;5.30;;;29.40;99.90;;;;;;5032911;28;20471;-83
2023/08/12 11:37:40;;;;;;;4.43;4.03;;;28.80;99.90;;;;;;5029488;28;20480;-79
2023/08/12 11:40:11;;;;;;;9.13;5.53;;;28.30;99.90;;;;;;5029378;28;20519;-80
2023/08/12 11:42:39;;;;;;;5.73;5.13;;;27.80;99.90;;;;;;5036081;28;20582;-80
2023/08/12 11:45:06;;;;;;;6.63;5.53;;;27.50;99.90;;;;;;5033715;28;20455;-80
2023/08/12 11:47:33;;;;;;;9.23;6.20;;;27.30;99.90;;;;;;5045016;28;20436;-82
2023/08/12 11:49:58;;;;;;;9.20;5.83;;;27.20;99.90;;;;;;5035182;28;20430;-85
2023/08/12 11:52:25;;;;;;;6.37;5.77;;;27.20;99.90;;;;;;5031669;28;20637;-81
2023/08/12 11:54:51;;;;;;;8.30;5.40;;;27.20;99.90;;;;;;5046140;28;20211;-85
2023/08/12 11:57:17;;;;;;;6.47;5.07;;;27.50;99.90;;;;;;5023276;28;20462;-79
2023/08/12 11:59:42;;;;;;;11.37;6.30;;;27.50;99.90;;;;;;5031998;28;20436;-84
2023/08/12 12:02:09;;;;;;;6.77;6.07;;;28.00;99.90;;;;;;5024177;28;20464;-84
2023/08/12 12:04:35;;;;;;;5.87;5.23;;;27.40;99.90;;;;;;5031831;28;20288;-83
2023/08/12 12:07:05;;;;;;;5.90;5.27;;;27.00;99.90;;;;;;5034120;28;20461;-87
2023/08/12 12:09:32;;;;;;;7.40;4.63;;;26.90;99.90;;;;;;5038716;28;20183;-84
2023/08/12 12:11:58;;;;;;;10.03;5.13;;;26.80;99.90;;;;;;5032480;28;20438;-83
2023/08/12 12:14:24;;;;;;;6.87;4.67;;;26.70;99.90;;;;;;5042242;28;20462;-84
2023/08/12 12:16:50;;;;;;;5.80;4.67;;;26.60;99.90;;;;;;5043780;28;20230;-80
2023/08/12 12:19:23;;;;;;;9.63;4.80;;;26.50;99.90;;;;;;5041295;28;20744;-83
2023/08/12 12:21:53;;;;;;;5.23;4.73;;;26.40;99.90;;;;;;5026410;28;20460;-84
2023/08/12 12:24:19;;;;;;;7.17;5.50;;;26.20;99.90;;;;;;5022443;28;20492;-82
2023/08/12 12:26:49;;;;;;;6.73;5.20;;;26.30;99.90;;;;;;5043959;28;20438;-83
2023/08/12 12:29:14;;;;;;;6.43;5.60;;;26.20;99.90;;;;;;5032405;28;20513;-85
2023/08/12 12:31:41;;;;;;;9.97;5.00;;;25.90;99.90;;;;;;5040191;28;21043;-81
2023/08/12 12:34:09;;;;;;;7.27;6.37;;;25.70;99.90;;;;;;5047453;28;20217;-82
2023/08/12 12:36:36;;;;;;;6.30;5.27;;;25.80;99.90;;;;;;5046060;28;20441;-87
2023/08/12 12:39:05;;;;;;;8.40;5.30;;;26.00;99.90;;;;;;5028038;28;20470;-83
2023/08/12 12:41:35;;;;;;;6.23;4.90;;;27.20;99.90;;;;;;5059984;28;20495;-82
2023/08/12 12:44:01;;;;;;;9.83;5.47;;;26.30;99.90;;;;;;5049407;28;20636;-80
2023/08/12 12:46:27;;;;;;;6.83;5.37;;;26.60;99.90;;;;;;5038199;28;21204;-82
2023/08/12 12:48:53;;;;;;;7.00;5.00;;;26.80;99.90;;;;;;5032574;28;20722;-82
2023/08/12 12:51:19;;;;;;;8.27;6.43;;;26.90;99.90;;;;;;5043627;28;20549;-82
2023/08/12 12:53:44;;;;;;;7.90;6.43;;;26.50;99.90;;;;;;5027894;28;20191;-81
2023/08/12 12:56:25;;;;;;;7.77;6.90;;;26.50;99.90;;;;;;5032355;28;21134;-83
2023/08/12 12:58:58;;;;;;;8.57;6.33;;;;;;;;;;5050129;28;20215;-85